Current Weather

Dallas Love Fld

Dallas, Texas (KDAL)

Report from: Sunday, February 25, 2024 3:53 PM CST
Current time: Sunday, February 25, 2024 4:46 PM CST

Nearby weather – Weather history – Daily summaries
Weather forecast

Temperature28.3°C (82.9°F)
Heat index27.7°C (81.8°F)
Dew point10.0°C (50.0°F)
Winds 12 kts (6.2 m/s, 13.8 mph) South (180°)
Wind gusts 23 kts (11.8 m/s, 26.5 mph)
Visibility10 mi. (16.1 km)
Clouds Few clouds 25,000 ft. (7,620 m)
Altimeter29.82 in.Hg (1010 mB)
Relative humidity32 %
Density altitude1,838 ft. (560 m)
Sea-level pressure100.9 kPa (1009 mB, 29.80 in.Hg)
Remarks System requires maintenance
Automated weather observing station with precipitation discriminator
Flight conditions Visual Meteorological Conditions
Raw dataKDAL 252153Z 18012G23KT 10SM FEW250 28/10 A2982 RMK AO2 SLP093 T02830100 $
An error has occurred. This application may no longer respond until reloaded. Reload 🗙